Time;durP1;ratioP1;P1;durP2;ratioP2;P2;SDS_P1;SDS_P2;PMS_P1;PMS_P2;Temp;Humidity;BMP_temperature;BMP_pressure;BME280_temperature;BME280_humidity;BME280_pressure;Samples;Min_cycle;Max_cycle;Signal;HPM_P1;HPM_P2
2022/03/06 00:01:55;;;;;;;;;;;128.80;1280.00;;;;;;5093113;28;20024;-68
2022/03/06 00:04:20;;;;;;;;;;;128.80;1280.00;;;;;;5094126;28;19969;-68
2022/03/06 00:06:46;;;;;;;;;;;128.80;1280.00;;;;;;5094593;28;19914;-65
2022/03/06 00:09:12;;;;;;;;;;;128.80;1305.60;;;;;;5095058;28;19908;-66
2022/03/06 00:11:38;;;;;;;;;;;128.80;1280.00;;;;;;5094525;28;19940;-66
2022/03/06 00:14:03;;;;;;;;;;;128.70;1305.60;;;;;;5094216;28;20380;-65
2022/03/06 00:16:29;;;;;;;;;;;128.70;1305.60;;;;;;5094695;28;19908;-66
2022/03/06 00:18:55;;;;;;;;;;;128.80;1280.00;;;;;;5094598;28;19908;-66
2022/03/06 00:21:21;;;;;;;;;;;128.80;1280.00;;;;;;5092939;28;19920;-66
2022/03/06 00:23:46;;;;;;;;;;;128.70;1280.00;;;;;;5094337;28;19915;-67
2022/03/06 00:26:12;;;;;;;;;;;128.70;1280.00;;;;;;5093698;28;20349;-67
2022/03/06 00:28:38;;;;;;;;;;;128.60;1305.60;;;;;;5094036;28;19915;-66
2022/03/06 00:31:05;;;;;;;;;;;128.60;1305.60;;;;;;5094371;28;19909;-66
2022/03/06 00:33:30;;;;;;;;;;;128.60;1305.60;;;;;;5094009;28;20354;-67
2022/03/06 00:35:56;;;;;;;;;;;128.60;1305.60;;;;;;5093555;28;19926;-66
2022/03/06 00:38:22;;;;;;;;;;;128.60;1305.60;;;;;;5091844;28;20002;-65
2022/03/06 00:40:47;;;;;;;;;;;128.60;1305.60;;;;;;5094216;28;19908;-66
2022/03/06 00:43:13;;;;;;;;;;;128.60;1305.60;;;;;;5094481;28;19912;-65
2022/03/06 00:45:39;;;;;;;;;;;128.60;1305.60;;;;;;5094476;28;19915;-67
2022/03/06 00:48:05;;;;;;;;;;;128.60;1305.60;;;;;;5094274;28;20396;-65
2022/03/06 00:50:31;;;;;;;;;;;128.60;1305.60;;;;;;5093767;28;20419;-65
2022/03/06 00:52:57;;;;;;;;;;;128.50;1305.60;;;;;;5094140;28;19912;-66
2022/03/06 00:55:22;;;;;;;;;;;128.50;1305.60;;;;;;5093875;28;20306;-65
2022/03/06 00:57:48;;;;;;;;;;;128.60;1305.60;;;;;;5094215;28;19908;-65
2022/03/06 01:00:14;;;;;;;;;;;128.50;1305.60;;;;;;5093908;28;20290;-66
2022/03/06 01:02:39;;;;;;;;;;;128.50;1305.60;;;;;;5093448;28;19912;-66
2022/03/06 01:05:05;;;;;;;;;;;128.50;1305.60;;;;;;5094144;28;19955;-66
2022/03/06 01:07:31;;;;;;;;;;;128.50;1305.60;;;;;;5093676;28;19920;-66
2022/03/06 01:09:56;;;;;;;;;;;128.50;1305.60;;;;;;5093978;28;20330;-66
2022/03/06 01:12:22;;;;;;;;;;;128.50;1305.60;;;;;;5093874;28;20002;-66
2022/03/06 01:14:48;;;;;;;;;;;128.50;1331.20;;;;;;5093023;28;19927;-66
2022/03/06 01:17:14;;;;;;;;;;;128.50;1331.20;;;;;;5093309;28;20392;-67
2022/03/06 01:19:40;;;;;;;;;;;128.50;1331.20;;;;;;5093920;28;19916;-68
2022/03/06 01:22:05;;;;;;;;;;;128.40;1331.20;;;;;;5093259;28;20384;-68
2022/03/06 01:24:31;;;;;;;;;;;128.40;1331.20;;;;;;5093733;28;19912;-67
2022/03/06 01:26:56;;;;;;;;;;;128.40;1331.20;;;;;;5093346;28;20307;-67
2022/03/06 01:29:22;;;;;;;;;;;128.40;1331.20;;;;;;5091614;28;19919;-67
2022/03/06 01:31:48;;;;;;;;;;;128.50;1331.20;;;;;;5093384;28;19920;-66
2022/03/06 01:34:14;;;;;;;;;;;128.40;1331.20;;;;;;5093207;28;19923;-66
2022/03/06 01:36:40;;;;;;;;;;;128.40;1331.20;;;;;;5092703;28;20407;-65
2022/03/06 01:39:06;;;;;;;;;;;128.40;1331.20;;;;;;5105870;28;19947;-65
2022/03/06 01:41:35;;;;;;;;;;;128.50;1331.20;;;;;;5093980;28;19912;-65
2022/03/06 01:44:01;;;;;;;;;;;128.20;1331.20;;;;;;5092742;28;19916;-65
2022/03/06 01:46:27;;;;;;;;;;;128.20;1356.80;;;;;;5093296;28;19913;-66
2022/03/06 01:48:52;;;;;;;;;;;128.30;1356.80;;;;;;5092940;28;19908;-66
2022/03/06 01:51:18;;;;;;;;;;;128.30;1331.20;;;;;;5092494;28;20423;-65
2022/03/06 01:53:43;;;;;;;;;;;128.40;1356.80;;;;;;5093402;28;19908;-66
2022/03/06 01:56:11;;;;;;;;;;;128.40;1356.80;;;;;;5093438;28;19943;-66
2022/03/06 01:58:36;;;;;;;;;;;128.40;1356.80;;;;;;5092831;28;19908;-65
2022/03/06 02:01:02;;;;;;;;;;;128.40;1356.80;;;;;;5091685;28;19973;-65
2022/03/06 02:03:28;;;;;;;;;;;128.40;1356.80;;;;;;5093275;28;19908;-65
2022/03/06 02:05:53;;;;;;;;;;;128.40;1356.80;;;;;;5093275;28;20222;-66
2022/03/06 02:08:19;;;;;;;;;;;128.40;1356.80;;;;;;5093382;28;20004;-66
2022/03/06 02:10:46;;;;;;;;;;;128.50;1356.80;;;;;;5093630;28;19915;-66
2022/03/06 02:13:12;;;;;;;;;;;128.40;1356.80;;;;;;5093807;28;20471;-66
2022/03/06 02:15:37;;;;;;;;;;;128.40;1356.80;;;;;;5097405;28;20011;-64
2022/03/06 02:18:03;;;;;;;;;;;128.50;1356.80;;;;;;5097320;28;20376;-67
2022/03/06 02:20:29;;;;;;;;;;;128.40;1356.80;;;;;;5097746;28;19908;-67
2022/03/06 02:22:56;;;;;;;;;;;128.50;1356.80;;;;;;5097669;28;19908;-68
2022/03/06 02:25:22;;;;;;;;;;;128.50;1356.80;;;;;;5097434;28;19912;-68
2022/03/06 02:27:49;;;;;;;;;;;128.40;1356.80;;;;;;5097398;28;19998;-67
2022/03/06 02:30:18;;;;;;;;;;;128.40;1356.80;;;;;;5097458;28;19943;-68
2022/03/06 02:32:45;;;;;;;;;;;128.40;1356.80;;;;;;5097212;28;19914;-68
2022/03/06 02:35:11;;;;;;;;;;;128.40;1356.80;;;;;;5097102;28;20362;-68
2022/03/06 02:37:36;;;;;;;;;;;128.40;1356.80;;;;;;5097295;28;19908;-68
2022/03/06 02:40:04;;;;;;;;;;;128.40;1356.80;;;;;;5097316;28;19908;-68
2022/03/06 02:42:30;;;;;;;;;;;128.30;1356.80;;;;;;5096577;28;19908;-68
2022/03/06 02:44:57;;;;;;;;;;;128.30;1382.40;;;;;;5096922;28;20403;-67
2022/03/06 02:47:22;;;;;;;;;;;128.30;1356.80;;;;;;5097291;28;19968;-68
2022/03/06 02:49:48;;;;;;;;;;;128.20;1382.40;;;;;;5097120;28;19908;-68
2022/03/06 02:52:14;;;;;;;;;;;128.20;1382.40;;;;;;5097056;28;20364;-68
2022/03/06 02:54:40;;;;;;;;;;;128.20;1356.80;;;;;;5096794;28;20394;-67
2022/03/06 02:57:06;;;;;;;;;;;128.10;1382.40;;;;;;5096978;28;20074;-68
2022/03/06 02:59:31;;;;;;;;;;;128.10;1382.40;;;;;;5096919;28;19918;-65
2022/03/06 03:01:57;;;;;;;;;;;128.20;1382.40;;;;;;5097057;28;20296;-65
2022/03/06 03:04:22;;;;;;;;;;;128.20;1382.40;;;;;;5096736;28;19908;-65
2022/03/06 03:06:52;;;;;;;;;;;128.10;1408.00;;;;;;5096751;28;19908;-65
2022/03/06 03:09:21;;;;;;;;;;;128.10;1408.00;;;;;;5096820;28;19938;-65
2022/03/06 03:11:47;;;;;;;;;;;128.10;1382.40;;;;;;5096632;28;19935;-65
2022/03/06 03:14:14;;;;;;;;;;;128.20;1382.40;;;;;;5096526;28;20358;-65
2022/03/06 03:16:40;;;;;;;;;;;128.20;1382.40;;;;;;5096703;28;19912;-65
2022/03/06 03:19:05;;;;;;;;;;;128.20;1382.40;;;;;;5096429;28;20250;-66
2022/03/06 03:21:31;;;;;;;;;;;128.10;1382.40;;;;;;5096724;28;19995;-65
2022/03/06 03:23:57;;;;;;;;;;;128.10;1382.40;;;;;;5096570;28;19908;-65
2022/03/06 03:26:22;;;;;;;;;;;128.10;1382.40;;;;;;5095677;28;19916;-65
2022/03/06 03:28:48;;;;;;;;;;;128.10;1382.40;;;;;;5096452;28;19915;-66
2022/03/06 03:31:14;;;;;;;;;;;128.10;1382.40;;;;;;5096336;28;19958;-65
2022/03/06 03:33:39;;;;;;;;;;;128.10;1382.40;;;;;;5096338;28;19912;-64
2022/03/06 03:36:05;;;;;;;;;;;128.10;1382.40;;;;;;5095385;28;19924;-64
2022/03/06 03:38:31;;;;;;;;;;;128.10;1382.40;;;;;;5095722;28;19928;-65
2022/03/06 03:40:57;;;;;;;;;;;128.10;1382.40;;;;;;5096046;28;19962;-68
2022/03/06 03:43:23;;;;;;;;;;;128.00;1382.40;;;;;;5095726;28;20292;-68
2022/03/06 03:45:49;;;;;;;;;;;128.00;1382.40;;;;;;5095427;28;19961;-68
2022/03/06 03:48:14;;;;;;;;;;;128.00;1382.40;;;;;;5096014;28;19908;-68
2022/03/06 03:50:40;;;;;;;;;;;128.00;1382.40;;;;;;5095383;28;20273;-68
2022/03/06 03:53:06;;;;;;;;;;;103.30;1356.80;;;;;;5095984;28;19908;-68
2022/03/06 03:55:31;;;;;;;;;;;103.30;1356.80;;;;;;5095585;28;19927;-68
2022/03/06 03:57:57;;;;;;;;;;;103.20;1382.40;;;;;;5095813;28;19908;-68
2022/03/06 04:00:22;;;;;;;;;;;103.30;1382.40;;;;;;5095810;28;20361;-68
2022/03/06 04:02:48;;;;;;;;;;;103.30;1382.40;;;;;;5095606;28;19909;-69
2022/03/06 04:05:13;;;;;;;;;;;103.30;1382.40;;;;;;5095685;28;19953;-68
2022/03/06 04:07:39;;;;;;;;;;;103.30;1382.40;;;;;;5095834;28;19924;-68
2022/03/06 04:10:05;;;;;;;;;;;103.20;1382.40;;;;;;5095441;28;20416;-68
2022/03/06 04:12:30;;;;;;;;;;;103.20;1382.40;;;;;;5095541;28;19912;-68
2022/03/06 04:14:56;;;;;;;;;;;103.20;1356.80;;;;;;5095562;28;20015;-68
2022/03/06 04:17:21;;;;;;;;;;;103.20;1356.80;;;;;;5095205;28;19908;-66
2022/03/06 04:19:47;;;;;;;;;;;103.20;1382.40;;;;;;5095219;28;19916;-66
2022/03/06 04:22:12;;;;;;;;;;;103.20;1356.80;;;;;;5095556;28;19916;-66
2022/03/06 04:24:38;;;;;;;;;;;103.10;1382.40;;;;;;5095462;28;20269;-66
2022/03/06 04:27:04;;;;;;;;;;;103.20;1382.40;;;;;;5095239;28;19915;-67
2022/03/06 04:29:30;;;;;;;;;;;103.20;1382.40;;;;;;5095341;28;19953;-66
2022/03/06 04:31:56;;;;;;;;;;;103.10;1382.40;;;;;;5095093;28;20364;-68
2022/03/06 04:34:21;;;;;;;;;;;103.10;1382.40;;;;;;5095210;28;19916;-68
2022/03/06 04:36:47;;;;;;;;;;;103.10;1382.40;;;;;;5094258;28;20308;-67
2022/03/06 04:39:13;;;;;;;;;;;103.10;1382.40;;;;;;5094480;28;20276;-67
2022/03/06 04:41:38;;;;;;;;;;;103.10;1382.40;;;;;;5094926;28;19908;-67
2022/03/06 04:44:04;;;;;;;;;;;103.10;1382.40;;;;;;5095039;28;19912;-67
2022/03/06 04:46:31;;;;;;;;;;;103.00;1382.40;;;;;;5094893;28;20369;-67
2022/03/06 04:48:56;;;;;;;;;;;103.00;1408.00;;;;;;5094589;28;19995;-68
2022/03/06 04:51:22;;;;;;;;;;;103.00;1382.40;;;;;;5094868;28;19951;-66
2022/03/06 04:53:48;;;;;;;;;;;103.00;1382.40;;;;;;5094839;28;19909;-66
2022/03/06 04:56:13;;;;;;;;;;;102.90;1408.00;;;;;;5094427;28;19965;-66
2022/03/06 04:58:39;;;;;;;;;;;102.90;1382.40;;;;;;5094575;28;19919;-66
2022/03/06 05:01:05;;;;;;;;;;;102.90;1382.40;;;;;;5094767;28;19908;-66
2022/03/06 05:03:30;;;;;;;;;;;102.90;1408.00;;;;;;5094688;28;20383;-66
2022/03/06 05:05:56;;;;;;;;;;;102.90;1408.00;;;;;;5094696;28;19908;-66
2022/03/06 05:08:22;;;;;;;;;;;102.90;1408.00;;;;;;5094266;28;19943;-70
2022/03/06 05:10:47;;;;;;;;;;;102.90;1408.00;;;;;;5094042;28;19940;-71
2022/03/06 05:13:13;;;;;;;;;;;102.90;1408.00;;;;;;5094619;28;19908;-71
2022/03/06 05:15:39;;;;;;;;;;;102.90;1408.00;;;;;;5094504;28;19916;-71
2022/03/06 05:18:04;;;;;;;;;;;102.90;1408.00;;;;;;5094448;28;19915;-67
2022/03/06 05:20:30;;;;;;;;;;;102.80;1408.00;;;;;;5094730;28;20407;-65
2022/03/06 05:22:56;;;;;;;;;;;102.90;1408.00;;;;;;5094457;28;20373;-67
2022/03/06 05:25:22;;;;;;;;;;;102.90;1408.00;;;;;;5094532;28;20261;-66
2022/03/06 05:27:47;;;;;;;;;;;102.90;1408.00;;;;;;5094080;28;19915;-65
2022/03/06 05:30:13;;;;;;;;;;;102.80;1408.00;;;;;;5094445;28;19912;-65
2022/03/06 05:32:39;;;;;;;;;;;102.80;1408.00;;;;;;5094350;28;19909;-64
2022/03/06 05:35:05;;;;;;;;;;;102.80;1408.00;;;;;;5094290;28;20006;-65
2022/03/06 05:37:31;;;;;;;;;;;102.80;1408.00;;;;;;5094246;28;19912;-65
2022/03/06 05:39:56;;;;;;;;;;;102.80;1408.00;;;;;;5092681;28;19909;-66
2022/03/06 05:42:22;;;;;;;;;;;102.80;1408.00;;;;;;5094160;28;19915;-65
2022/03/06 05:44:47;;;;;;;;;;;102.90;1408.00;;;;;;5093548;28;20380;-65
2022/03/06 05:47:13;;;;;;;;;;;102.80;1408.00;;;;;;5094046;28;19955;-66
2022/03/06 05:49:38;;;;;;;;;;;102.90;1408.00;;;;;;5096334;28;19915;-64
2022/03/06 05:52:04;;;;;;;;;;;102.90;1408.00;;;;;;5096775;28;19915;-67
2022/03/06 05:54:30;;;;;;;;;;;102.80;1408.00;;;;;;5098148;28;19952;-66
2022/03/06 05:56:56;;;;;;;;;;;102.80;1433.60;;;;;;5098041;28;20349;-65
2022/03/06 05:59:21;;;;;;;;;;;102.80;1408.00;;;;;;5098140;28;19913;-68
2022/03/06 06:01:47;;;;;;;;;;;102.80;1408.00;;;;;;5098135;28;19908;-67
2022/03/06 06:04:12;;;;;;;;;;;102.80;1433.60;;;;;;5098095;28;19961;-65
2022/03/06 06:06:38;;;;;;;;;;;102.80;1459.20;;;;;;5097184;28;19908;-68
2022/03/06 06:09:04;;;;;;;;;;;102.90;1510.40;;;;;;5097716;28;20399;-67
2022/03/06 06:11:29;;;;;;;;;;;103.00;1459.20;;;;;;5097760;28;19908;-68
2022/03/06 06:13:55;;;;;;;;;;;102.90;1459.20;;;;;;5097321;28;19947;-68
2022/03/06 06:16:21;;;;;;;;;;;102.90;1433.60;;;;;;5097745;28;20483;-66
2022/03/06 06:18:46;;;;;;;;;;;103.00;1433.60;;;;;;5097795;28;19954;-68
2022/03/06 06:21:13;;;;;;;;;;;103.00;1433.60;;;;;;5097617;28;19912;-68
2022/03/06 06:23:39;;;;;;;;;;;103.00;1433.60;;;;;;5097737;28;19943;-66
2022/03/06 06:26:05;;;;;;;;;;;103.00;1433.60;;;;;;5097426;28;20357;-68
2022/03/06 06:28:30;;;;;;;;;;;103.00;1433.60;;;;;;5097485;28;20057;-70
2022/03/06 06:30:56;;;;;;;;;;;102.90;1459.20;;;;;;5097530;28;19999;-65
2022/03/06 06:33:22;;;;;;;;;;;103.00;1484.80;;;;;;5095728;28;19979;-69
2022/03/06 06:35:48;;;;;;;;;;;103.00;1459.20;;;;;;5097395;28;20121;-68
2022/03/06 06:38:13;;;;;;;;;;;102.90;1459.20;;;;;;5096607;28;19915;-69
2022/03/06 06:40:39;;;;;;;;;;;103.00;1459.20;;;;;;5097052;28;19908;-64
2022/03/06 06:43:04;;;;;;;;;;;103.00;1459.20;;;;;;5095648;28;19914;-66
2022/03/06 06:45:30;;;;;;;;;;;103.00;1459.20;;;;;;5097462;28;19912;-70
2022/03/06 06:47:56;;;;;;;;;;;102.90;1459.20;;;;;;5096696;28;19908;-66
2022/03/06 06:50:22;;;;;;;;;;;103.00;1459.20;;;;;;5096753;28;19908;-63
2022/03/06 06:52:47;;;;;;;;;;;103.10;1433.60;;;;;;5097144;28;19919;-68
2022/03/06 06:55:13;;;;;;;;;;;103.10;1433.60;;;;;;5097005;28;20006;-68
2022/03/06 06:57:39;;;;;;;;;;;103.10;1433.60;;;;;;5096341;28;20261;-66
2022/03/06 07:00:05;;;;;;;;;;;103.10;1433.60;;;;;;5096181;28;19908;-63
2022/03/06 07:02:31;;;;;;;;;;;103.10;1433.60;;;;;;5096347;28;19912;-61
2022/03/06 07:04:57;;;;;;;;;;;103.10;1536.00;;;;;;5097044;28;19908;-61
2022/03/06 07:07:24;;;;;;;;;;;103.30;1510.40;;;;;;5095354;28;20009;-62
2022/03/06 07:09:49;;;;;;;;;;;103.30;1484.80;;;;;;5096857;28;20356;-61
2022/03/06 07:12:15;;;;;;;;;;;103.30;1484.80;;;;;;5095463;28;19916;-61
2022/03/06 07:14:40;;;;;;;;;;;103.30;1459.20;;;;;;5096613;28;19977;-61
2022/03/06 07:17:06;;;;;;;;;;;103.30;1459.20;;;;;;5096761;28;20373;-64
2022/03/06 07:19:32;;;;;;;;;;;103.30;1484.80;;;;;;5096715;28;19908;-62
2022/03/06 07:21:59;;;;;;;;;;;103.30;1459.20;;;;;;5096292;28;19908;-63
2022/03/06 07:24:25;;;;;;;;;;;103.30;1459.20;;;;;;5095500;28;20008;-62
2022/03/06 07:26:50;;;;;;;;;;;103.30;1433.60;;;;;;5096335;28;19953;-63
2022/03/06 07:29:16;;;;;;;;;;;128.00;1484.80;;;;;;5096515;28;19912;-65
2022/03/06 07:31:42;;;;;;;;;;;128.00;1459.20;;;;;;5096215;28;19909;-65
2022/03/06 07:34:07;;;;;;;;;;;128.00;1484.80;;;;;;5096138;28;19908;-63
2022/03/06 07:36:33;;;;;;;;;;;128.10;1484.80;;;;;;5096318;28;19934;-63
2022/03/06 07:38:58;;;;;;;;;;;128.00;1459.20;;;;;;5096284;28;19915;-62
2022/03/06 07:41:24;;;;;;;;;;;128.00;1484.80;;;;;;5095970;28;19908;-63
2022/03/06 07:43:49;;;;;;;;;;;128.00;1484.80;;;;;;5094539;28;19954;-62
2022/03/06 07:46:15;;;;;;;;;;;103.30;1459.20;;;;;;5094884;28;20266;-61
2022/03/06 07:48:41;;;;;;;;;;;128.00;1510.40;;;;;;5089113;28;19912;-63
2022/03/06 07:51:06;;;;;;;;;;;128.00;1536.00;;;;;;5095735;28;20323;-63
2022/03/06 07:53:32;;;;;;;;;;;128.10;1510.40;;;;;;5094749;28;19908;-66
2022/03/06 07:55:57;;;;;;;;;;;128.20;1510.40;;;;;;5095077;28;19923;-73
2022/03/06 07:58:23;;;;;;;;;;;128.30;1561.60;;;;;;5095334;28;19934;-63
2022/03/06 08:00:48;;;;;;;;;;;128.20;1510.40;;;;;;5094893;28;19962;-62
2022/03/06 08:03:15;;;;;;;;;;;128.20;1484.80;;;;;;5095105;28;19912;-66
2022/03/06 08:05:41;;;;;;;;;;;128.20;1510.40;;;;;;5094744;28;19969;-69
2022/03/06 08:08:07;;;;;;;;;;;128.20;1510.40;;;;;;5095028;28;20327;-64
2022/03/06 08:10:33;;;;;;;;;;;128.30;1510.40;;;;;;5094986;28;19955;-66
2022/03/06 08:12:58;;;;;;;;;;;128.20;1510.40;;;;;;5094984;28;20276;-63
2022/03/06 08:15:24;;;;;;;;;;;128.30;1510.40;;;;;;5094437;28;19920;-63
2022/03/06 08:17:49;;;;;;;;;;;128.40;1561.60;;;;;;5094974;28;20000;-64
2022/03/06 08:20:15;;;;;;;;;;;128.50;1510.40;;;;;;5094801;28;19915;-64
2022/03/06 08:22:43;;;;;;;;;;;128.50;1510.40;;;;;;5094103;28;20285;-63
2022/03/06 08:25:09;;;;;;;;;;;128.60;1510.40;;;;;;5093375;28;19908;-64
2022/03/06 08:27:35;;;;;;;;;;;128.60;1484.80;;;;;;5094920;28;19911;-64
2022/03/06 08:30:01;;;;;;;;;;;128.80;1587.20;;;;;;5094677;28;19908;-64
2022/03/06 08:32:26;;;;;;;;;;;128.80;1510.40;;;;;;5094884;28;20364;-64
2022/03/06 08:34:52;;;;;;;;;;;128.80;1510.40;;;;;;5094358;28;19916;-64
2022/03/06 08:37:18;;;;;;;;;;;128.80;1510.40;;;;;;5094657;28;20320;-64
2022/03/06 08:39:45;;;;;;;;;;;128.90;1484.80;;;;;;5094428;28;19931;-64
2022/03/06 08:42:10;;;;;;;;;;;128.90;1510.40;;;;;;5093035;28;19919;-64
2022/03/06 08:44:36;;;;;;;;;;;153.60;1484.80;;;;;;5094280;28;19908;-63
2022/03/06 08:47:02;;;;;;;;;;;153.60;1484.80;;;;;;5094384;28;20479;-64
2022/03/06 08:49:27;;;;;;;;;;;153.70;1510.40;;;;;;5093701;28;19938;-64
2022/03/06 08:51:53;;;;;;;;;;;153.80;1484.80;;;;;;5093875;28;19908;-64
2022/03/06 08:54:18;;;;;;;;;;;153.80;1484.80;;;;;;5094171;28;19951;-65
2022/03/06 08:56:44;;;;;;;;;;;153.80;1484.80;;;;;;5093088;28;20279;-64
2022/03/06 08:59:10;;;;;;;;;;;153.90;1484.80;;;;;;5092407;28;19961;-63
2022/03/06 09:01:35;;;;;;;;;;;153.90;1484.80;;;;;;5092998;28;20273;-63
2022/03/06 09:04:01;;;;;;;;;;;154.10;1484.80;;;;;;5092846;28;20011;-64
2022/03/06 09:06:27;;;;;;;;;;;154.10;1484.80;;;;;;5095155;28;20319;-64
2022/03/06 09:08:53;;;;;;;;;;;154.10;1484.80;;;;;;5103820;28;19924;-64
2022/03/06 09:11:19;;;;;;;;;;;154.10;1459.20;;;;;;5092288;28;19919;-64
2022/03/06 09:13:44;;;;;;;;;;;154.20;1459.20;;;;;;5093207;28;20011;-63
2022/03/06 09:16:10;;;;;;;;;;;154.20;1459.20;;;;;;5093999;28;19935;-64
2022/03/06 09:18:36;;;;;;;;;;;154.30;1459.20;;;;;;5092270;28;19918;-64
2022/03/06 09:21:01;;;;;;;;;;;154.30;1459.20;;;;;;5093427;28;19919;-64
2022/03/06 09:23:27;;;;;;;;;;;154.40;1459.20;;;;;;5092654;28;19920;-63
2022/03/06 09:25:52;;;;;;;;;;;154.40;1433.60;;;;;;5102386;28;19908;-64
2022/03/06 09:28:18;;;;;;;;;;;154.40;1459.20;;;;;;5102333;28;19930;-63
2022/03/06 09:30:44;;;;;;;;;;;154.50;1433.60;;;;;;5102262;28;19908;-64
2022/03/06 09:33:09;;;;;;;;;;;179.20;1433.60;;;;;;5103575;28;19953;-64
2022/03/06 09:35:35;;;;;;;;;;;179.20;1433.60;;;;;;5102094;28;20375;-64
2022/03/06 09:38:01;;;;;;;;;;;179.30;1433.60;;;;;;5113161;28;19918;-63
2022/03/06 09:40:27;;;;;;;;;;;179.40;1433.60;;;;;;5107378;28;19912;-64
2022/03/06 09:42:53;;;;;;;;;;;179.50;1433.60;;;;;;5103431;28;19915;-64
2022/03/06 09:45:21;;;;;;;;;;;179.60;1433.60;;;;;;5102117;28;19912;-64
2022/03/06 09:47:46;;;;;;;;;;;179.70;1433.60;;;;;;5101508;28;19951;-63
2022/03/06 09:50:13;;;;;;;;;;;179.80;1433.60;;;;;;5103303;28;19954;-64
2022/03/06 09:52:39;;;;;;;;;;;179.90;1408.00;;;;;;5100444;28;20397;-63
2022/03/06 09:55:06;;;;;;;;;;;180.00;1408.00;;;;;;5101639;28;19916;-64
2022/03/06 09:57:32;;;;;;;;;;;180.10;1408.00;;;;;;5101389;28;19912;-64
2022/03/06 09:59:57;;;;;;;;;;;204.80;1408.00;;;;;;5104481;28;19961;-64
2022/03/06 10:02:23;;;;;;;;;;;204.90;1382.40;;;;;;5092763;28;19912;-63
2022/03/06 10:04:50;;;;;;;;;;;205.00;1382.40;;;;;;5092283;28;20417;-63
2022/03/06 10:07:17;;;;;;;;;;;205.00;1382.40;;;;;;5092277;28;19937;-65
2022/03/06 10:09:44;;;;;;;;;;;205.10;1382.40;;;;;;5091821;28;19912;-64
2022/03/06 10:12:19;;;;;;;;;;;205.20;1382.40;;;;;;5099574;28;19912;-64
2022/03/06 10:14:45;;;;;;;;;;;205.30;1356.80;;;;;;5097044;28;19972;-64
2022/03/06 10:17:17;;;;;;;;;;;205.30;1356.80;;;;;;5100148;28;19920;-64
2022/03/06 10:20:03;;;;;;;;;;;205.30;1331.20;;;;;;5097092;28;19995;-64
2022/03/06 10:22:29;;;;;;;;;;;205.40;1331.20;;;;;;5099152;28;20263;-64
2022/03/06 10:24:56;;;;;;;;;;;205.40;1331.20;;;;;;5099415;28;19908;-64
2022/03/06 10:27:40;;;;;;;;;;;205.50;1331.20;;;;;;5097148;28;19916;-65
2022/03/06 10:30:26;;;;;;;;;;;205.60;1331.20;;;;;;5090369;28;19915;-64
2022/03/06 10:32:52;;;;;;;;;;;205.60;1331.20;;;;;;5088675;28;19920;-63
2022/03/06 10:35:18;;;;;;;;;;;205.60;1305.60;;;;;;5092701;28;19916;-64
2022/03/06 10:37:44;;;;;;;;;;;205.70;1305.60;;;;;;5095747;28;19912;-63
2022/03/06 10:40:14;;;;;;;;;;;205.70;1305.60;;;;;;5095398;28;19964;-64
2022/03/06 10:42:42;;;;;;;;;;;205.70;1305.60;;;;;;5100297;28;20318;-63
2022/03/06 10:45:22;;;;;;;;;;;230.40;1305.60;;;;;;5099359;28;19919;-61
2022/03/06 10:47:47;;;;;;;;;;;230.40;1305.60;;;;;;5075879;28;20468;-63
2022/03/06 10:50:19;;;;;;;;;;;230.40;1305.60;;;;;;5079694;28;20006;-65
2022/03/06 10:52:45;;;;;;;;;;;230.40;1305.60;;;;;;5090105;28;19923;-64
2022/03/06 10:55:10;;;;;;;;;;;230.40;1305.60;;;;;;5090497;28;19920;-64
2022/03/06 10:57:36;;;;;;;;;;;230.40;1280.00;;;;;;5094776;28;19912;-63
2022/03/06 11:00:04;;;;;;;;;;;230.50;1280.00;;;;;;5096359;28;19916;-64
2022/03/06 11:02:29;;;;;;;;;;;230.50;1305.60;;;;;;5095961;28;20390;-63
2022/03/06 11:04:58;;;;;;;;;;;230.50;1280.00;;;;;;5096174;28;19995;-64
2022/03/06 11:07:26;;;;;;;;;;;230.50;1280.00;;;;;;5095830;28;19913;-64
2022/03/06 11:09:53;;;;;;;;;;;230.50;1280.00;;;;;;5094233;28;19919;-63
2022/03/06 11:12:19;;;;;;;;;;;230.60;1280.00;;;;;;5102995;28;19912;-63
2022/03/06 11:14:45;;;;;;;;;;;230.60;1280.00;;;;;;5094629;28;19928;-63
2022/03/06 11:17:10;;;;;;;;;;;230.60;1305.60;;;;;;5094392;28;20002;-63
2022/03/06 11:19:37;;;;;;;;;;;230.70;1280.00;;;;;;5095699;28;19916;-63
2022/03/06 11:22:10;;;;;;;;;;;230.70;1280.00;;;;;;5091069;28;19916;-64
2022/03/06 11:24:36;;;;;;;;;;;230.80;1280.00;;;;;;5091499;28;19918;-63
2022/03/06 11:27:20;;;;;;;;;;;230.80;1280.00;;;;;;5093892;28;19912;-63
2022/03/06 11:29:46;;;;;;;;;;;230.80;1254.40;;;;;;5101792;28;19912;-63
2022/03/06 11:32:12;;;;;;;;;;;230.90;1254.40;;;;;;5096819;28;19973;-63
2022/03/06 11:34:39;;;;;;;;;;;230.90;1254.40;;;;;;5099202;28;20424;-63
2022/03/06 11:37:06;;;;;;;;;;;230.90;1254.40;;;;;;5103166;28;20358;-63
2022/03/06 11:39:31;;;;;;;;;;;231.00;1254.40;;;;;;5098355;28;19955;-63
2022/03/06 11:42:04;;;;;;;;;;;231.00;1254.40;;;;;;5094476;28;19943;-63
2022/03/06 11:44:37;;;;;;;;;;;231.00;1254.40;;;;;;5098893;28;19912;-63
2022/03/06 11:47:18;;;;;;;;;;;231.00;1254.40;;;;;;5099244;28;19909;-64
2022/03/06 11:49:51;;;;;;;;;;;231.00;1254.40;;;;;;5102018;28;19908;-63
2022/03/06 11:52:27;;;;;;;;;;;231.00;1254.40;;;;;;5101467;28;19912;-63
2022/03/06 11:54:53;;;;;;;;;;;231.00;1254.40;;;;;;5101471;28;19920;-63
2022/03/06 11:57:35;;;;;;;;;;;231.10;1228.80;;;;;;5100055;28;19923;-63
2022/03/06 12:00:24;;;;;;;;;;;231.10;1228.80;;;;;;5095158;28;19958;-63
2022/03/06 12:02:51;;;;;;;;;;;231.20;1228.80;;;;;;5073211;28;20414;-63
2022/03/06 12:05:19;;;;;;;;;;;231.20;1228.80;;;;;;5078136;28;20349;-63
2022/03/06 12:07:45;;;;;;;;;;;231.30;1228.80;;;;;;5063409;28;20366;-63
2022/03/06 12:10:12;;;;;;;;;;;231.30;1228.80;;;;;;5080661;28;19908;-63
2022/03/06 12:12:38;;;;;;;;;;;231.30;1228.80;;;;;;5079378;28;19920;-63
2022/03/06 12:15:14;;;;;;;;;;;231.30;1228.80;;;;;;5077083;28;20012;-63
2022/03/06 12:17:40;;;;;;;;;;;231.30;1228.80;;;;;;5070623;28;19916;-63
2022/03/06 12:20:08;;;;;;;;;;;231.30;1228.80;;;;;;5073914;28;19935;-63
2022/03/06 12:22:35;;;;;;;;;;;231.30;1203.20;;;;;;5061490;28;19916;-63
2022/03/06 12:25:03;;;;;;;;;;;231.30;1203.20;;;;;;5070875;28;19908;-63
2022/03/06 12:27:29;;;;;;;;;;;231.30;1203.20;;;;;;5080701;28;20324;-63
2022/03/06 12:29:55;;;;;;;;;;;231.30;1203.20;;;;;;5063141;28;19924;-63
2022/03/06 12:32:27;;;;;;;;;;;231.30;1203.20;;;;;;5065154;28;19909;-63
2022/03/06 12:34:58;;;;;;;;;;;256.00;1203.20;;;;;;5076115;28;20242;-63
2022/03/06 12:37:31;;;;;;;;;;;256.10;1203.20;;;;;;5079670;28;19912;-63
2022/03/06 12:39:58;;;;;;;;;;;256.20;1203.20;;;;;;5084713;28;19912;-64
2022/03/06 12:42:27;;;;;;;;;;;256.20;1177.60;;;;;;5103507;28;20022;-63
2022/03/06 12:44:54;;;;;;;;;;;256.30;1152.00;;;;;;5090432;28;19912;-63
2022/03/06 12:47:19;;;;;;;;;;;256.40;1152.00;;;;;;5093064;28;19955;-64
2022/03/06 12:49:45;;;;;;;;;;;256.40;1177.60;;;;;;5093216;28;19943;-63
2022/03/06 12:52:15;;;;;;;;;;;256.30;1177.60;;;;;;5091463;28;19912;-63
2022/03/06 12:54:40;;;;;;;;;;;256.30;1177.60;;;;;;5092928;28;19924;-63
2022/03/06 12:57:06;;;;;;;;;;;256.20;1177.60;;;;;;5092895;28;19909;-63
2022/03/06 12:59:35;;;;;;;;;;;256.30;1177.60;;;;;;5090906;28;20346;-62
2022/03/06 13:02:01;;;;;;;;;;;256.20;1177.60;;;;;;5092918;28;20319;-72
2022/03/06 13:04:26;;;;;;;;;;;256.60;1254.40;;;;;;5092945;28;19943;-65
2022/03/06 13:06:53;;;;;;;;;;;256.50;1203.20;;;;;;5092446;28;20376;-73
2022/03/06 13:09:23;;;;;;;;;;;256.50;1177.60;;;;;;5092887;28;19931;-68
2022/03/06 13:11:49;;;;;;;;;;;256.40;1177.60;;;;;;5093887;28;19947;-69
2022/03/06 13:14:15;;;;;;;;;;;256.50;1177.60;;;;;;5092499;28;19935;-69
2022/03/06 13:16:41;;;;;;;;;;;256.40;1177.60;;;;;;5094006;28;19935;-68
2022/03/06 13:19:07;;;;;;;;;;;256.30;1177.60;;;;;;5093982;28;20353;-69
2022/03/06 13:21:37;;;;;;;;;;;256.30;1177.60;;;;;;5093971;28;19912;-68
2022/03/06 13:24:08;;;;;;;;;;;256.20;1203.20;;;;;;5094306;28;20000;-68
2022/03/06 13:26:34;;;;;;;;;;;256.30;1203.20;;;;;;5093869;28;19977;-69
2022/03/06 13:29:00;;;;;;;;;;;256.30;1203.20;;;;;;5093374;28;20315;-68
2022/03/06 13:31:26;;;;;;;;;;;256.30;1203.20;;;;;;5093738;28;19944;-68
2022/03/06 13:34:01;;;;;;;;;;;256.30;1203.20;;;;;;5094022;28;20362;-68
2022/03/06 13:36:27;;;;;;;;;;;256.30;1203.20;;;;;;5093276;28;19927;-68
2022/03/06 13:38:59;;;;;;;;;;;256.30;1203.20;;;;;;5094056;28;19908;-68